Time;durP1;ratioP1;P1;durP2;ratioP2;P2;SDS_P1;SDS_P2;PMS_P1;PMS_P2;Temp;Humidity;BMP_temperature;BMP_pressure;BME280_temperature;BME280_humidity;BME280_pressure;Samples;Min_cycle;Max_cycle;Signal;HPM_P1;HPM_P2
2022/06/12 00:00:36;;;;;;;7.93;2.80;;;;;;;;;;5045487;28;20417;-79
2022/06/12 00:03:04;;;;;;;9.82;3.05;;;15.00;99.90;;;;;;5044775;28;20504;-79
2022/06/12 00:05:33;;;;;;;9.32;2.97;;;;;;;;;;5046363;28;20427;-79
2022/06/12 00:07:59;;;;;;;8.70;3.22;;;;;;;;;;5044210;28;20407;-79
2022/06/12 00:10:25;;;;;;;10.32;2.90;;;;;;;;;;5045329;28;20423;-79
2022/06/12 00:12:51;;;;;;;9.30;2.72;;;;;;;;;;5041878;28;20496;-78
2022/06/12 00:15:20;;;;;;;6.57;2.70;;;14.80;99.90;;;;;;5032541;28;20496;-77
2022/06/12 00:17:47;;;;;;;8.77;2.90;;;;;;;;;;5016238;28;20492;-77
2022/06/12 00:20:15;;;;;;;9.18;3.05;;;14.90;99.90;;;;;;5025215;28;20484;-77
2022/06/12 00:22:43;;;;;;;8.50;2.50;;;;;;;;;;5020259;28;20547;-77
2022/06/12 00:25:09;;;;;;;10.20;3.00;;;14.90;99.90;;;;;;5024586;28;20966;-78
2022/06/12 00:27:36;;;;;;;9.63;3.28;;;14.90;99.90;;;;;;5027859;28;20421;-78
2022/06/12 00:30:03;;;;;;;9.65;2.60;;;;;;;;;;5027875;28;20450;-78
2022/06/12 00:32:30;;;;;;;10.95;3.00;;;;;;;;;;5039264;28;20428;-77
2022/06/12 00:34:57;;;;;;;7.93;2.83;;;;;;;;;;5015039;28;20421;-77
2022/06/12 00:37:24;;;;;;;9.02;2.90;;;;;;;;;;5013730;28;20804;-77
2022/06/12 00:39:51;;;;;;;8.23;2.70;;;;;;;;;;5037656;28;20426;-78
2022/06/12 00:42:35;;;;;;;9.82;2.90;;;;;;;;;;5034241;28;20421;-78
2022/06/12 00:45:23;;;;;;;10.50;3.30;;;14.40;99.90;;;;;;5044205;28;20770;-77
2022/06/12 00:47:49;;;;;;;10.63;3.10;;;;;;;;;;5035096;28;20985;-78
2022/06/12 00:50:15;;;;;;;9.77;2.90;;;;;;;;;;5020772;28;20425;-78
2022/06/12 00:52:45;;;;;;;7.28;2.95;;;14.20;99.90;;;;;;5015507;28;20481;-78
2022/06/12 00:55:11;;;;;;;10.43;3.03;;;;;;;;;;5045582;28;20414;-77
2022/06/12 00:57:37;;;;;;;10.15;3.03;;;;;;;;;;5046171;28;20429;-77
2022/06/12 01:00:14;;;;;;;8.77;2.80;;;14.00;99.90;;;;;;5027409;28;20816;-76
2022/06/12 01:02:41;;;;;;;9.20;3.10;;;13.90;99.90;;;;;;5031992;28;20427;-77
2022/06/12 05:54:33;;;;;;;14.38;4.45;;;;;;;;;;5087198;27;20411;-78
2022/06/12 05:57:00;;;;;;;14.15;4.90;;;;;;;;;;5079232;28;20562;-78
2022/06/12 05:59:26;;;;;;;14.27;4.47;;;;;;;;;;5100993;28;20433;-78
2022/06/12 06:01:52;;;;;;;15.98;4.32;;;;;;;;;;5084283;28;20427;-78
2022/06/12 06:04:18;;;;;;;16.65;4.90;;;;;;;;;;5082538;28;20425;-78
2022/06/12 06:06:49;;;;;;;15.35;4.60;;;15.60;99.90;;;;;;5077322;28;20431;-78
2022/06/12 06:09:16;;;;;;;22.00;5.10;;;;;;;;;;5093394;28;20435;-78
2022/06/12 06:11:43;;;;;;;18.20;5.07;;;;;;;;;;5059853;28;20423;-78
2022/06/12 06:14:09;;;;;;;16.93;4.83;;;;;;;;;;5070269;28;20455;-78
2022/06/12 06:16:36;;;;;;;18.25;5.22;;;16.20;99.90;;;;;;5070122;28;20861;-79
2022/06/12 06:19:02;;;;;;;18.58;5.07;;;16.30;99.90;;;;;;5084548;28;20421;-78
2022/06/12 06:21:28;;;;;;;16.73;5.60;;;16.20;99.90;;;;;;5120182;27;20426;-78
2022/06/12 06:23:55;;;;;;;18.58;5.40;;;;;;;;;;5082435;28;20423;-79
2022/06/12 06:26:20;;;;;;;14.50;5.40;;;16.20;99.90;;;;;;5072780;28;20933;-80
2022/06/12 06:28:50;;;;;;;17.60;5.20;;;16.70;99.90;;;;;;5086902;28;20449;-77
2022/06/12 06:31:15;;;;;;;14.95;4.63;;;16.80;99.90;;;;;;5119648;28;21111;-76
2022/06/12 06:43:30;;;;;;;20.17;5.80;;;17.10;99.90;;;;;;5081896;27;20723;-78
2022/06/12 06:46:14;;;;;;;16.23;5.72;;;;;;;;;;5061855;27;20524;-77
2022/06/12 06:48:40;;;;;;;19.88;6.15;;;17.50;99.90;;;;;;5090539;27;20947;-75
2022/06/12 06:51:06;;;;;;;19.80;5.67;;;17.50;99.90;;;;;;5116795;27;20433;-76
2022/06/12 06:53:32;;;;;;;16.27;5.10;;;17.60;99.90;;;;;;5004387;28;21052;-79
2022/06/12 06:55:59;;;;;;;23.45;6.18;;;;;;;;;;5061224;28;20424;-80
2022/06/12 06:58:26;;;;;;;20.05;6.10;;;17.70;99.90;;;;;;5150417;27;20484;-80
2022/06/12 07:00:52;;;;;;;17.83;5.60;;;18.00;99.90;;;;;;5059723;27;20892;-80
2022/06/12 07:03:19;;;;;;;19.45;5.75;;;17.90;99.90;;;;;;5045497;27;20441;-80
2022/06/12 07:05:46;;;;;;;21.30;6.28;;;18.10;99.90;;;;;;5146433;27;20935;-80
2022/06/12 07:08:13;;;;;;;19.80;5.60;;;18.50;99.90;;;;;;5061122;28;20765;-80
2022/06/12 07:10:40;;;;;;;17.33;6.15;;;18.50;99.90;;;;;;5042366;27;20445;-80
2022/06/12 07:13:06;;;;;;;18.70;5.10;;;18.60;99.90;;;;;;5048635;28;20425;-80
2022/06/12 07:15:33;;;;;;;18.67;5.90;;;18.50;99.90;;;;;;5057269;27;20892;-79
2022/06/12 07:17:59;;;;;;;17.13;5.28;;;18.20;99.90;;;;;;5151150;27;20416;-80
2022/06/12 07:20:29;;;;;;;18.50;5.50;;;18.50;99.90;;;;;;5044030;28;20425;-79
2022/06/12 07:22:55;;;;;;;17.20;5.10;;;;;;;;;;5059732;28;20512;-82
2022/06/12 07:25:21;;;;;;;18.20;5.28;;;;;;;;;;5044686;28;20436;-78
2022/06/12 07:27:48;;;;;;;19.90;5.35;;;18.90;99.90;;;;;;5069308;27;20421;-76
2022/06/12 07:30:17;;;;;;;16.88;4.72;;;19.20;99.90;;;;;;5045556;28;20476;-76
2022/06/12 07:32:43;;;;;;;20.05;5.50;;;;;;;;;;5042864;27;20543;-76
2022/06/12 07:35:10;;;;;;;21.60;5.28;;;19.00;99.90;;;;;;5060272;28;20515;-76
2022/06/12 07:37:36;;;;;;;19.67;4.40;;;19.30;99.90;;;;;;5045270;28;20405;-76
2022/06/12 07:40:07;;;;;;;17.90;4.88;;;19.20;99.90;;;;;;5144746;27;20431;-75
2022/06/12 07:42:33;;;;;;;18.65;4.88;;;19.40;99.90;;;;;;5060519;28;20428;-76
2022/06/12 07:44:59;;;;;;;15.35;4.60;;;19.30;99.90;;;;;;5043974;27;20439;-75
2022/06/12 07:47:24;;;;;;;18.48;5.18;;;19.40;99.90;;;;;;5045172;28;20516;-75
2022/06/12 07:49:51;;;;;;;21.67;5.45;;;;;;;;;;5071101;27;20452;-75
2022/06/12 07:52:18;;;;;;;18.13;4.90;;;19.80;99.90;;;;;;5149645;27;20698;-75
2022/06/12 07:54:44;;;;;;;15.27;4.90;;;19.80;99.90;;;;;;5046694;27;20512;-75
2022/06/12 07:57:09;;;;;;;20.63;5.00;;;19.90;99.90;;;;;;5028812;28;20501;-75
2022/06/12 07:59:35;;;;;;;18.40;4.78;;;19.80;99.90;;;;;;5096446;27;20436;-75
2022/06/12 08:02:02;;;;;;;20.67;5.15;;;20.40;99.90;;;;;;5066747;27;20490;-75
2022/06/12 08:04:29;;;;;;;23.58;5.60;;;20.30;99.90;;;;;;5082871;27;20404;-75
2022/06/12 08:06:55;;;;;;;15.45;4.95;;;20.20;99.90;;;;;;5133055;27;20477;-75
2022/06/12 08:09:23;;;;;;;16.95;5.43;;;20.30;99.90;;;;;;5029755;28;20429;-75
2022/06/12 08:11:50;;;;;;;19.83;5.18;;;20.40;99.90;;;;;;5123629;27;20438;-75
2022/06/12 08:14:18;;;;;;;15.35;4.80;;;20.70;99.90;;;;;;5058870;27;20520;-75
2022/06/12 08:16:44;;;;;;;18.25;5.10;;;20.80;99.90;;;;;;5046222;27;20405;-76
2022/06/12 08:21:57;;;;;;;19.80;5.45;;;21.20;99.90;;;;;;5046347;28;20426;-75
2022/06/12 08:24:23;;;;;;;16.83;4.75;;;21.30;99.90;;;;;;5026790;27;20425;-76
2022/06/12 08:26:49;;;;;;;15.93;4.90;;;21.50;99.90;;;;;;5031215;28;20922;-75
2022/06/12 08:29:15;;;;;;;16.70;5.35;;;21.10;99.90;;;;;;5114098;27;20768;-75
2022/06/12 08:31:47;;;;;;;17.70;5.32;;;21.10;99.90;;;;;;5027344;28;20425;-75
2022/06/12 08:34:22;;;;;;;21.98;5.25;;;20.90;99.90;;;;;;5045750;28;20495;-76
2022/06/12 08:36:58;;;;;;;15.55;4.68;;;20.70;99.90;;;;;;5043699;28;20906;-76
2022/06/12 08:39:24;;;;;;;14.57;4.10;;;20.60;99.90;;;;;;5025905;27;20414;-77
2022/06/12 08:42:02;;;;;;;10.50;3.53;;;20.50;99.90;;;;;;5135713;27;20465;-77
2022/06/12 08:44:40;;;;;;;13.23;3.55;;;20.80;99.90;;;;;;5134651;27;20432;-76
2022/06/12 08:47:27;;;;;;;11.30;3.30;;;20.50;99.90;;;;;;5018489;28;20502;-76
2022/06/12 08:50:09;;;;;;;11.65;3.47;;;20.70;99.90;;;;;;5028652;27;20437;-77
2022/06/12 08:52:44;;;;;;;12.27;3.45;;;21.10;99.90;;;;;;5035160;28;20461;-76
2022/06/12 08:55:18;;;;;;;7.65;2.85;;;21.50;99.90;;;;;;5019992;28;20477;-77
2022/06/12 08:58:09;;;;;;;11.27;3.43;;;22.00;99.90;;;;;;5031627;28;20405;-76
2022/06/12 09:00:37;;;;;;;11.10;3.67;;;21.80;99.90;;;;;;5025857;27;20924;-75
2022/06/12 09:03:05;;;;;;;11.93;3.30;;;21.70;99.90;;;;;;5038737;28;20511;-76
2022/06/12 09:05:42;;;;;;;14.63;3.72;;;21.80;99.90;;;;;;5127915;27;20981;-77
2022/06/12 09:08:45;;;;;;;10.75;3.60;;;21.50;99.90;;;;;;5117425;27;20426;-79
2022/06/12 09:11:17;;;;;;;10.98;3.40;;;21.50;99.90;;;;;;5020704;28;20555;-77
2022/06/12 09:14:33;;;;;;;9.82;2.92;;;21.30;99.90;;;;;;5021051;28;20433;-76
2022/06/12 09:17:09;;;;;;;11.25;3.15;;;20.90;99.90;;;;;;5047653;28;20431;-76
2022/06/12 09:19:55;;;;;;;10.40;3.10;;;21.10;99.90;;;;;;5045336;28;20429;-76
2022/06/12 09:23:04;;;;;;;10.18;2.75;;;21.50;99.90;;;;;;5016995;27;20435;-76
2022/06/12 09:25:53;;;;;;;11.02;3.03;;;21.80;99.90;;;;;;5043522;28;20428;-76
2022/06/12 09:28:38;;;;;;;8.73;2.80;;;22.60;99.90;;;;;;5044769;27;20433;-76
2022/06/12 09:43:27;;;;;;;7.70;2.30;;;21.70;99.90;;;;;;4941705;23;20444;-80
2022/06/12 09:46:08;;;;;;;7.20;2.40;;;21.70;99.90;;;;;;4947597;28;20989;-79
2022/06/12 09:49:20;;;;;;;9.00;2.60;;;22.00;99.90;;;;;;4935326;28;20478;-80
2022/06/12 09:52:10;;;;;;;6.25;2.20;;;22.10;99.90;;;;;;4870641;29;20844;-78
2022/06/12 09:54:48;;;;;;;6.85;2.22;;;21.40;99.90;;;;;;4929423;28;20428;-79
2022/06/12 09:57:26;;;;;;;7.45;2.60;;;21.80;99.90;;;;;;4946356;28;20444;-78
2022/06/12 10:00:09;;;;;;;6.75;2.05;;;21.60;99.90;;;;;;4953776;28;20842;-78
2022/06/12 10:02:46;;;;;;;5.40;1.80;;;22.10;99.90;;;;;;4932642;28;20447;-80
2022/06/12 10:05:17;;;;;;;5.78;2.13;;;22.00;99.90;;;;;;4946799;28;20485;-79
2022/06/12 10:07:52;;;;;;;7.82;2.10;;;21.80;99.90;;;;;;4930392;28;20434;-79
2022/06/12 10:10:39;;;;;;;7.53;2.60;;;22.10;99.90;;;;;;4933780;28;20526;-78
2022/06/12 10:13:11;;;;;;;6.13;2.30;;;24.30;99.90;;;;;;4929211;28;20510;-79
2022/06/12 10:15:53;;;;;;;6.53;2.10;;;21.70;99.90;;;;;;4929782;28;20423;-77
2022/06/12 10:18:40;;;;;;;7.97;2.00;;;21.80;99.90;;;;;;4950484;28;20559;-79
2022/06/12 10:21:15;;;;;;;6.38;2.05;;;21.40;99.90;;;;;;4940719;29;20487;-79
2022/06/12 10:23:40;;;;;;;6.45;2.03;;;21.50;99.90;;;;;;4941330;28;20440;-79
2022/06/12 10:26:17;;;;;;;6.35;2.33;;;22.30;99.90;;;;;;4930608;28;20503;-79
2022/06/12 10:28:44;;;;;;;6.53;2.63;;;21.90;99.90;;;;;;4937387;28;20432;-80
2022/06/12 10:31:10;;;;;;;5.63;2.10;;;;;;;;;;4929376;28;20420;-78
2022/06/12 10:33:47;;;;;;;6.00;2.30;;;21.50;99.90;;;;;;4936491;28;21025;-79
2022/06/12 10:36:19;;;;;;;7.40;2.30;;;21.60;99.90;;;;;;4935095;28;20432;-79
2022/06/12 10:38:44;;;;;;;6.00;2.17;;;21.60;99.90;;;;;;4932832;28;20436;-79
2022/06/12 10:41:28;;;;;;;6.47;2.13;;;21.90;99.90;;;;;;4920560;28;20428;-78
2022/06/12 10:43:58;;;;;;;7.38;2.30;;;21.90;99.90;;;;;;4937205;28;20463;-78
2022/06/12 10:46:28;;;;;;;6.93;1.90;;;20.50;99.90;;;;;;4951513;28;20463;-79
2022/06/12 10:48:56;;;;;;;6.47;2.40;;;22.60;99.90;;;;;;4925373;28;20437;-79
2022/06/12 10:51:27;;;;;;;6.20;2.20;;;22.30;99.90;;;;;;4927673;28;20420;-80
2022/06/12 10:54:05;;;;;;;6.25;2.15;;;21.90;99.90;;;;;;4948147;28;20511;-78
2022/06/12 10:56:49;;;;;;;7.35;2.17;;;21.80;99.90;;;;;;4943591;28;20448;-79
2022/06/12 10:59:55;;;;;;;8.65;2.20;;;21.50;99.90;;;;;;4940753;28;20436;-79
2022/06/12 11:02:32;;;;;;;6.93;2.33;;;21.40;99.90;;;;;;4933318;28;20435;-79
2022/06/12 11:05:12;;;;;;;6.57;2.15;;;21.40;99.90;;;;;;4946572;28;20432;-78
2022/06/12 11:07:57;;;;;;;8.48;2.47;;;21.30;99.90;;;;;;4952724;28;20416;-78
2022/06/12 11:10:35;;;;;;;5.93;2.30;;;21.60;99.90;;;;;;4939922;28;20895;-78
2022/06/12 11:13:26;;;;;;;6.10;2.00;;;21.50;99.90;;;;;;4958202;28;20784;-79
2022/06/12 11:16:29;;;;;;;6.07;2.13;;;21.30;99.90;;;;;;4943633;28;20462;-79
2022/06/12 11:19:15;;;;;;;5.28;2.03;;;21.40;99.90;;;;;;4925253;28;20440;-81
2022/06/12 11:22:07;;;;;;;8.57;2.28;;;21.20;99.90;;;;;;4936334;28;20965;-79
2022/06/12 11:25:10;;;;;;;6.03;2.00;;;21.30;99.90;;;;;;4949536;28;20434;-80
2022/06/12 11:27:54;;;;;;;7.88;2.30;;;19.70;99.90;;;;;;4935510;28;20478;-81
2022/06/12 11:30:46;;;;;;;7.32;2.53;;;21.70;99.90;;;;;;4935259;28;20430;-79
2022/06/12 11:33:32;;;;;;;6.47;2.00;;;21.70;99.90;;;;;;4935178;28;20422;-76
2022/06/12 11:36:16;;;;;;;7.85;2.40;;;22.00;99.90;;;;;;4950520;28;20824;-79
2022/06/12 11:39:01;;;;;;;6.80;2.80;;;22.00;99.90;;;;;;4940484;28;20923;-80
2022/06/12 11:41:52;;;;;;;7.55;2.38;;;22.30;99.90;;;;;;4937614;28;20456;-80
2022/06/12 11:44:45;;;;;;;6.35;2.00;;;21.90;99.90;;;;;;4953341;28;20468;-79
2022/06/12 11:47:34;;;;;;;7.20;2.00;;;21.80;99.90;;;;;;4936080;28;20851;-79
2022/06/12 11:50:23;;;;;;;7.60;2.20;;;21.70;99.90;;;;;;4956636;28;20430;-81
2022/06/12 11:53:23;;;;;;;7.30;1.90;;;21.40;99.90;;;;;;4954778;28;20446;-78
2022/06/12 11:56:19;;;;;;;5.00;1.77;;;22.00;99.90;;;;;;4955223;28;20567;-79
2022/06/12 11:59:25;;;;;;;6.35;1.92;;;21.60;99.90;;;;;;4936537;28;20439;-79
2022/06/12 12:02:18;;;;;;;5.60;1.85;;;21.70;99.90;;;;;;4965632;28;20516;-80
2022/06/12 12:05:24;;;;;;;5.35;1.90;;;21.90;99.90;;;;;;4938138;28;20518;-80
2022/06/12 12:08:19;;;;;;;6.60;2.00;;;22.10;99.90;;;;;;4932069;28;20514;-79
2022/06/12 12:11:00;;;;;;;6.07;2.10;;;22.10;99.90;;;;;;4952729;28;20593;-80
2022/06/12 12:13:31;;;;;;;4.50;1.73;;;22.80;99.90;;;;;;4934881;28;20511;-80
2022/06/12 12:16:06;;;;;;;5.22;1.80;;;22.50;99.90;;;;;;4943955;28;20446;-80
2022/06/12 12:18:50;;;;;;;5.25;1.90;;;21.90;99.90;;;;;;4938878;28;20514;-79
2022/06/12 12:21:28;;;;;;;7.40;1.97;;;22.40;99.90;;;;;;4950835;28;20996;-80
2022/06/12 12:23:56;;;;;;;6.32;1.90;;;22.50;99.90;;;;;;4953735;28;20428;-80
2022/06/12 12:26:35;;;;;;;5.40;1.98;;;22.50;99.90;;;;;;4922632;29;20925;-80
2022/06/12 12:29:05;;;;;;;6.88;2.30;;;22.50;99.90;;;;;;4952525;28;20439;-80
2022/06/12 12:31:31;;;;;;;6.45;2.10;;;22.30;99.90;;;;;;4925813;29;20422;-80
2022/06/12 12:34:01;;;;;;;5.20;1.83;;;22.00;99.90;;;;;;4934826;28;21028;-80
2022/06/12 12:42:33;;;;;;;4.85;2.05;;;22.20;99.90;;;;;;4953262;28;20444;-80
2022/06/12 12:45:37;;;;;;;8.15;2.05;;;22.00;99.90;;;;;;4936239;28;20455;-80
2022/06/12 12:48:09;;;;;;;6.38;1.83;;;22.50;99.90;;;;;;4907720;29;20447;-80
2022/06/12 12:50:47;;;;;;;7.32;2.20;;;21.90;99.90;;;;;;4934597;28;20765;-81
2022/06/12 12:53:38;;;;;;;6.20;1.77;;;22.40;99.90;;;;;;4949463;28;20428;-79
2022/06/12 12:56:08;;;;;;;5.05;1.73;;;22.30;99.90;;;;;;4937829;28;20432;-79
2022/06/12 12:58:53;;;;;;;6.30;1.90;;;22.40;99.90;;;;;;4954809;28;20947;-80
2022/06/12 13:01:33;;;;;;;6.38;2.00;;;23.20;99.90;;;;;;4950125;28;20454;-81
2022/06/12 13:04:19;;;;;;;6.65;1.90;;;22.80;99.90;;;;;;4953144;28;20427;-80
2022/06/12 13:07:04;;;;;;;5.55;2.05;;;22.80;99.90;;;;;;4938195;28;20786;-80
2022/06/12 13:09:50;;;;;;;5.45;2.30;;;22.70;99.90;;;;;;4935253;28;20500;-79
2022/06/12 13:12:34;;;;;;;6.13;2.25;;;23.30;99.90;;;;;;4934639;28;20573;-80
2022/06/12 13:15:05;;;;;;;6.70;1.90;;;22.70;99.90;;;;;;4939903;28;20436;-80
2022/06/12 13:17:45;;;;;;;8.18;2.83;;;23.00;99.90;;;;;;4938376;28;20428;-80
2022/06/12 13:20:22;;;;;;;5.80;2.30;;;21.60;99.90;;;;;;4950959;28;20432;-80
2022/06/12 13:23:05;;;;;;;6.22;2.50;;;23.10;99.90;;;;;;4965730;28;20431;-79
2022/06/12 13:25:42;;;;;;;8.57;2.58;;;23.40;99.90;;;;;;4949341;28;20507;-80
2022/06/12 13:28:25;;;;;;;7.55;2.67;;;21.50;99.90;;;;;;4956134;28;20437;-80
2022/06/12 13:30:52;;;;;;;9.63;2.58;;;22.50;99.90;;;;;;4951608;28;20437;-80
2022/06/12 13:33:34;;;;;;;9.05;2.60;;;22.40;99.90;;;;;;4932127;28;20420;-80
2022/06/12 13:36:04;;;;;;;8.68;2.70;;;22.30;99.90;;;;;;4952527;28;20780;-80
2022/06/12 13:38:35;;;;;;;8.48;2.67;;;22.10;99.90;;;;;;4936682;28;20420;-81
2022/06/12 13:41:19;;;;;;;7.60;2.63;;;22.40;99.90;;;;;;4934389;28;20447;-81
2022/06/12 13:43:45;;;;;;;7.07;2.53;;;22.50;99.90;;;;;;4927646;28;20435;-81
2022/06/12 13:46:24;;;;;;;8.00;2.90;;;22.60;99.90;;;;;;4917167;28;20420;-80
2022/06/12 13:48:51;;;;;;;7.07;2.60;;;22.60;99.90;;;;;;4954952;28;20487;-80
2022/06/12 13:51:36;;;;;;;6.67;2.53;;;22.10;99.90;;;;;;4941421;28;20416;-80
2022/06/12 13:54:13;;;;;;;8.48;2.50;;;22.00;99.90;;;;;;4934274;28;20907;-80
2022/06/12 13:56:46;;;;;;;7.50;2.92;;;22.30;99.90;;;;;;4933158;28;20443;-80
2022/06/12 13:59:21;;;;;;;7.82;2.90;;;22.10;99.90;;;;;;4929664;28;20474;-80
2022/06/12 14:01:48;;;;;;;8.65;2.67;;;22.00;99.90;;;;;;4948715;28;20524;-80
2022/06/12 14:04:29;;;;;;;9.57;2.88;;;21.90;99.90;;;;;;4936930;28;20426;-80
2022/06/12 14:06:58;;;;;;;8.32;2.65;;;21.90;99.90;;;;;;4937035;28;20462;-80
2022/06/12 14:09:32;;;;;;;8.57;2.53;;;22.00;99.90;;;;;;4937928;28;20447;-81
2022/06/12 14:12:00;;;;;;;7.95;2.70;;;22.00;99.90;;;;;;4936788;28;20518;-80
2022/06/12 14:14:34;;;;;;;9.38;2.90;;;22.80;99.90;;;;;;4931199;28;20436;-80
2022/06/12 14:17:00;;;;;;;5.80;2.30;;;22.90;99.90;;;;;;4951945;28;20415;-80
2022/06/12 14:19:31;;;;;;;11.45;2.80;;;23.00;99.90;;;;;;4935469;28;20496;-81
2022/06/12 14:22:17;;;;;;;6.45;2.53;;;23.20;99.90;;;;;;4932810;28;20456;-81
2022/06/12 14:24:55;;;;;;;8.10;2.70;;;23.00;99.90;;;;;;4932691;28;20440;-81
2022/06/12 14:27:24;;;;;;;7.13;2.53;;;22.80;99.90;;;;;;4934365;28;20432;-80
2022/06/12 14:29:50;;;;;;;10.23;2.97;;;23.10;99.90;;;;;;4931206;28;20524;-81
2022/06/12 14:32:42;;;;;;;9.18;3.13;;;23.40;99.90;;;;;;4934124;28;20436;-80
2022/06/12 14:35:07;;;;;;;8.38;2.90;;;23.20;99.90;;;;;;4926796;28;20468;-80
2022/06/12 14:37:42;;;;;;;8.83;2.87;;;22.80;99.90;;;;;;4928775;28;20441;-81
2022/06/12 14:40:32;;;;;;;8.57;2.83;;;22.70;99.90;;;;;;4932860;28;20515;-80
2022/06/12 14:43:06;;;;;;;7.87;2.87;;;22.80;99.90;;;;;;4949992;28;20978;-81
2022/06/12 14:45:33;;;;;;;7.60;2.92;;;22.80;99.90;;;;;;4946633;28;20431;-81
2022/06/12 14:47:59;;;;;;;9.73;2.80;;;22.70;99.90;;;;;;4941516;28;21104;-80
2022/06/12 14:50:25;;;;;;;6.63;2.47;;;22.00;99.90;;;;;;4936039;28;20462;-80
2022/06/12 14:52:51;;;;;;;9.77;2.90;;;22.00;99.90;;;;;;4949227;28;20461;-79
2022/06/12 14:55:17;;;;;;;9.93;2.92;;;21.90;99.90;;;;;;4938076;28;20431;-79
2022/06/12 14:57:43;;;;;;;8.50;2.80;;;22.10;99.90;;;;;;4934196;28;21161;-78
2022/06/12 15:00:20;;;;;;;8.15;2.95;;;22.10;99.90;;;;;;4905640;28;20432;-78
2022/06/12 15:02:46;;;;;;;7.88;2.88;;;22.40;99.90;;;;;;4933119;28;20478;-79
2022/06/12 15:05:23;;;;;;;6.90;2.50;;;22.30;99.90;;;;;;4957755;28;20818;-79
2022/06/12 15:07:49;;;;;;;9.18;2.50;;;22.40;99.90;;;;;;4959338;28;20424;-79
2022/06/12 15:10:15;;;;;;;10.77;2.90;;;22.50;99.90;;;;;;4962084;28;20427;-79
2022/06/12 15:12:40;;;;;;;8.52;2.65;;;22.70;99.90;;;;;;4933785;28;20578;-78
2022/06/12 15:15:22;;;;;;;7.45;2.47;;;23.00;99.90;;;;;;4961907;28;20440;-78
2022/06/12 15:17:50;;;;;;;7.93;2.75;;;22.70;99.90;;;;;;4953615;28;20435;-78
2022/06/12 15:20:17;;;;;;;9.98;2.88;;;23.00;99.90;;;;;;4918712;28;20523;-78
2022/06/12 15:22:43;;;;;;;9.15;2.70;;;23.60;99.90;;;;;;4941541;28;20803;-78
2022/06/12 15:31:02;;;;;;;8.25;3.03;;;22.90;99.90;;;;;;4933316;28;20430;-79
2022/06/12 15:33:28;;;;;;;7.63;3.00;;;22.80;99.90;;;;;;4949836;28;20443;-78
2022/06/12 15:35:58;;;;;;;7.20;2.63;;;22.90;99.90;;;;;;4938598;28;20412;-80
2022/06/12 15:38:25;;;;;;;10.38;3.08;;;23.60;99.90;;;;;;4937644;28;20419;-75
2022/06/12 15:40:51;;;;;;;9.20;3.00;;;23.70;99.90;;;;;;4947940;28;20503;-76
2022/06/12 15:43:17;;;;;;;7.70;3.00;;;23.60;99.90;;;;;;4931550;29;20484;-75
2022/06/12 15:45:44;;;;;;;9.93;3.20;;;22.60;99.90;;;;;;4954467;29;20827;-76
2022/06/12 15:48:10;;;;;;;10.35;2.95;;;22.10;99.90;;;;;;4937051;29;20797;-75
2022/06/12 15:50:37;;;;;;;8.43;3.70;;;22.00;99.90;;;;;;4951392;29;20417;-75
2022/06/12 15:53:04;;;;;;;10.32;3.30;;;21.60;99.90;;;;;;4950702;29;20518;-76
2022/06/12 15:55:30;;;;;;;12.13;3.45;;;21.60;99.90;;;;;;4939588;29;20524;-75
2022/06/12 15:57:57;;;;;;;8.55;3.53;;;21.60;99.90;;;;;;4949657;29;20441;-76
2022/06/12 16:00:23;;;;;;;8.48;3.30;;;21.90;99.90;;;;;;4954718;28;20944;-76
2022/06/12 16:02:50;;;;;;;9.95;3.15;;;22.10;99.90;;;;;;4931490;29;20451;-76
2022/06/12 16:05:19;;;;;;;9.70;3.30;;;22.30;99.90;;;;;;4916958;29;20433;-76
2022/06/12 16:07:44;;;;;;;7.85;2.90;;;23.30;99.90;;;;;;4945424;28;20440;-76
2022/06/12 16:10:12;;;;;;;7.50;3.00;;;23.20;99.90;;;;;;4933231;29;20425;-76
2022/06/12 16:12:40;;;;;;;8.70;3.00;;;23.40;99.90;;;;;;4932021;29;20424;-76
2022/06/12 16:15:11;;;;;;;10.65;3.20;;;23.80;99.90;;;;;;4937240;29;20496;-76
2022/06/12 16:17:38;;;;;;;8.57;3.00;;;23.70;99.90;;;;;;4950124;28;20452;-76
2022/06/12 16:20:04;;;;;;;9.68;3.03;;;23.20;99.90;;;;;;4946552;29;20436;-76
2022/06/12 16:22:29;;;;;;;8.57;3.15;;;23.60;99.90;;;;;;4919669;29;20431;-76
2022/06/12 16:24:55;;;;;;;7.72;2.88;;;22.90;99.90;;;;;;4942546;28;20500;-76
2022/06/12 16:27:21;;;;;;;10.63;3.05;;;23.10;99.90;;;;;;4934479;29;20426;-76
2022/06/12 16:29:47;;;;;;;8.73;2.90;;;23.20;99.90;;;;;;4915040;29;20775;-76
2022/06/12 16:32:13;;;;;;;9.20;3.10;;;23.90;99.90;;;;;;4930296;29;20958;-76
2022/06/12 16:34:38;;;;;;;9.60;2.72;;;23.40;99.90;;;;;;4915098;28;20431;-76
2022/06/12 16:37:04;;;;;;;9.63;2.73;;;23.40;99.90;;;;;;4919918;29;20430;-76
2022/06/12 16:39:30;;;;;;;9.13;3.03;;;23.60;99.90;;;;;;4929494;29;20459;-76
2022/06/12 16:41:57;;;;;;;9.32;2.85;;;23.20;99.90;;;;;;4945050;28;20433;-76
2022/06/12 16:44:26;;;;;;;8.38;3.00;;;;;;;;;;4912891;28;20928;-76
2022/06/12 16:46:57;;;;;;;8.20;2.80;;;22.80;99.90;;;;;;4937320;28;20558;-76
2022/06/12 16:49:24;;;;;;;7.65;2.70;;;22.90;99.90;;;;;;4935288;28;20430;-76
2022/06/12 16:51:57;;;;;;;8.93;2.72;;;23.40;99.90;;;;;;4949278;28;20454;-77
2022/06/12 16:54:25;;;;;;;7.40;2.67;;;23.20;99.90;;;;;;4955778;28;20461;-77
2022/06/12 16:56:51;;;;;;;10.25;3.15;;;23.50;99.90;;;;;;4939775;29;20420;-76
2022/06/12 16:59:17;;;;;;;8.00;2.60;;;23.70;99.90;;;;;;4921975;28;20420;-76
2022/06/12 17:01:43;;;;;;;7.35;2.50;;;23.60;99.90;;;;;;4927853;28;20528;-76
2022/06/12 17:04:10;;;;;;;8.90;2.70;;;23.70;99.90;;;;;;4930232;28;20506;-76
2022/06/12 17:06:37;;;;;;;7.35;2.60;;;24.00;99.90;;;;;;4934428;28;20590;-76
2022/06/12 17:09:05;;;;;;;7.10;2.50;;;24.50;99.90;;;;;;4946308;28;20432;-80
2022/06/12 17:11:31;;;;;;;7.30;2.60;;;24.80;99.90;;;;;;4917746;28;20428;-80
2022/06/12 17:13:57;;;;;;;6.53;2.50;;;24.60;99.90;;;;;;4937079;28;20950;-76
2022/06/12 17:16:23;;;;;;;8.63;2.65;;;24.50;99.90;;;;;;4953672;28;20428;-77
2022/06/12 17:21:33;;;;;;;6.90;2.70;;;24.00;99.90;;;;;;4946432;28;20523;-77
2022/06/12 17:23:59;;;;;;;7.13;2.63;;;24.00;99.90;;;;;;4901343;29;20476;-77
2022/06/12 17:26:25;;;;;;;7.75;2.70;;;24.30;99.90;;;;;;4940812;28;20455;-77
2022/06/12 17:28:51;;;;;;;5.82;2.60;;;23.90;99.90;;;;;;4955260;28;20487;-77
2022/06/12 17:31:17;;;;;;;9.10;2.70;;;23.90;99.90;;;;;;4918766;28;20422;-77
2022/06/12 17:33:43;;;;;;;8.18;2.80;;;23.30;99.90;;;;;;4948662;28;20924;-77
2022/06/12 17:36:09;;;;;;;8.07;2.65;;;23.00;99.90;;;;;;4935928;28;20424;-78
2022/06/12 17:38:34;;;;;;;7.63;2.78;;;23.10;99.90;;;;;;4959102;28;20428;-78
2022/06/12 17:41:00;;;;;;;8.35;2.55;;;22.70;99.90;;;;;;4934672;28;20436;-79
2022/06/12 17:43:26;;;;;;;8.23;2.90;;;22.30;99.90;;;;;;4936447;28;21660;-79
2022/06/12 17:45:54;;;;;;;9.90;3.10;;;21.90;99.90;;;;;;4949488;28;20435;-78
2022/06/12 17:48:20;;;;;;;6.47;2.75;;;22.20;99.90;;;;;;4927061;28;20428;-79
2022/06/12 17:50:46;;;;;;;8.35;2.67;;;22.30;99.90;;;;;;4935525;28;20458;-79
2022/06/12 17:53:12;;;;;;;8.25;2.83;;;22.30;99.90;;;;;;4948825;28;20438;-78
2022/06/12 17:55:40;;;;;;;8.35;3.30;;;22.00;99.90;;;;;;4939302;28;20998;-79
2022/06/12 17:58:06;;;;;;;8.57;2.70;;;22.20;99.90;;;;;;4948319;28;20447;-79
2022/06/12 18:00:32;;;;;;;7.60;2.40;;;22.10;99.90;;;;;;4916182;28;20440;-79
2022/06/12 18:02:59;;;;;;;9.68;2.97;;;22.40;99.90;;;;;;4933622;28;20440;-79
2022/06/12 18:05:24;;;;;;;11.32;3.20;;;22.10;99.90;;;;;;4926487;28;20942;-78
2022/06/12 18:07:50;;;;;;;7.30;2.60;;;22.00;99.90;;;;;;4939668;28;20428;-78
2022/06/12 18:10:17;;;;;;;6.45;2.35;;;21.80;99.90;;;;;;4949869;28;20431;-78
2022/06/12 18:12:44;;;;;;;9.45;2.97;;;21.60;99.90;;;;;;4951261;28;20436;-78
2022/06/12 18:20:40;;;;;;;8.48;2.78;;;21.80;99.90;;;;;;4951383;28;20770;-79
2022/06/12 18:23:06;;;;;;;7.68;2.63;;;21.90;99.90;;;;;;4919137;28;21911;-79
2022/06/12 18:25:32;;;;;;;7.03;2.63;;;21.60;99.90;;;;;;4929049;28;20447;-79
2022/06/12 18:27:58;;;;;;;7.47;2.90;;;22.20;99.90;;;;;;4948712;28;20427;-76
2022/06/12 18:30:28;;;;;;;6.37;2.73;;;22.50;99.90;;;;;;4927623;28;20733;-77
2022/06/12 18:32:54;;;;;;;9.05;2.53;;;;;;;;;;4947222;28;20423;-77
2022/06/12 18:35:20;;;;;;;7.03;2.90;;;22.10;99.90;;;;;;4929781;28;20788;-77
2022/06/12 18:37:47;;;;;;;8.13;2.80;;;;;;;;;;4953211;28;20424;-76
2022/06/12 18:40:14;;;;;;;8.02;2.63;;;21.70;99.90;;;;;;4936208;28;20431;-77
2022/06/12 18:42:40;;;;;;;9.57;3.03;;;21.90;99.90;;;;;;4944782;28;20479;-78
2022/06/12 18:45:06;;;;;;;8.27;2.90;;;;;;;;;;4935998;28;20428;-78
2022/06/12 18:47:33;;;;;;;10.80;3.20;;;21.10;99.90;;;;;;4934875;28;22846;-77
2022/06/12 18:49:59;;;;;;;10.00;3.17;;;;;;;;;;4954006;28;20946;-77
2022/06/12 18:52:25;;;;;;;7.57;3.00;;;;;;;;;;4936013;28;20436;-77
2022/06/12 18:54:52;;;;;;;8.50;3.10;;;;;;;;;;4921690;28;20527;-77
2022/06/12 18:57:18;;;;;;;10.60;3.27;;;;;;;;;;4918411;28;20479;-77
2022/06/12 18:59:45;;;;;;;9.32;3.13;;;;;;;;;;4951067;28;20939;-77